CDT,Max TemperatureF,Mean TemperatureF,Min TemperatureF,Max Dew PointF,MeanDew PointF,Min DewpointF,Max Humidity, Mean Humidity, Min Humidity, Max Sea Level PressureIn, Mean Sea Level PressureIn, Min Sea Level PressureIn, Max VisibilityMiles, Mean VisibilityMiles, Min VisibilityMiles, Max Wind SpeedMPH, Mean Wind SpeedMPH, Max Gust SpeedMPH,PrecipitationIn, CloudCover, Events, WindDirDegrees
2012-9-1,92,78,64,68,64,59,94,67,33,30.05,30.00,29.94,10,10,4,9,4,,0.00,0,,24
2012-9-2,96,78,60,65,62,58,94,63,30,29.99,29.93,29.85,10,9,5,13,6,16,0.00,0,,146
2012-9-3,87,77,67,70,66,61,89,72,49,29.96,29.90,29.85,10,10,7,15,5,20,0.00,1,Rain,94
2012-9-4,101,82,63,69,62,52,96,61,21,29.90,29.82,29.71,10,8,0,16,3,25,0.00,1,Fog-Rain,175
2012-9-5,88,73,58,59,51,40,80,50,19,29.97,29.88,29.73,10,10,2,18,7,29,0.00,0,,342
2012-9-6,92,70,48,62,49,40,87,52,20,30.02,29.90,29.76,10,10,2,21,7,26,0.00,0,,159
2012-9-7,75,64,52,62,51,39,83,58,29,30.14,29.98,29.77,10,10,10,17,9,28,0.00,1,Rain,338
2012-9-8,86,64,43,46,40,32,87,47,14,30.19,30.10,29.97,10,10,10,16,7,24,0.00,0,,304
2012-9-9,77,60,45,47,42,39,79,54,28,30.26,30.17,30.11,10,10,10,9,6,,0.00,0,,15
2012-9-10,90,68,45,50,45,41,89,51,20,30.13,30.01,29.88,10,10,10,24,10,31,0.01,0,,171
2012-9-11,97,75,53,51,46,39,85,41,14,29.91,29.87,29.82,10,10,10,25,12,36,0.00,0,,169
2012-9-12,75,64,54,53,49,37,94,56,29,30.31,30.07,29.88,10,10,5,31,11,41,0.38,3,Rain,20
2012-9-13,69,60,50,52,48,40,92,73,35,30.43,30.37,30.29,10,10,10,10,5,,0.04,2,Rain,39
2012-9-14,82,62,42,48,42,33,94,56,18,30.38,30.32,30.25,10,10,5,15,6,20,0.00,0,,196
2012-9-15,79,61,43,58,48,40,90,64,29,30.28,30.19,30.09,10,10,10,15,6,20,0.00,0,,169
2012-9-16,79,66,52,59,56,51,97,78,37,30.09,30.00,29.90,10,8,0,13,6,17,0.00,3,Fog,189
2012-9-17,69,58,45,59,47,34,97,72,29,30.08,29.99,29.91,10,8,0,17,6,23,0.06,4,Fog-Rain,357
2012-9-18,73,56,40,43,37,32,86,50,24,30.13,30.03,29.92,10,10,5,10,5,16,0.00,1,,209
2012-9-19,93,68,43,48,39,29,90,46,12,30.01,29.88,29.79,10,10,10,24,7,36,0.00,0,,252
2012-9-20,77,60,43,45,35,23,76,43,16,30.08,30.01,29.94,10,10,7,12,6,18,0.00,0,,319
2012-9-21,77,64,50,45,36,26,75,42,16,29.95,29.89,29.83,10,10,7,23,8,37,0.00,0,,300
2012-9-22,65,52,40,40,27,16,71,41,16,30.30,30.21,29.96,10,10,10,16,8,23,0.00,0,,344
2012-9-23,70,51,32,34,29,25,86,51,20,30.36,30.27,30.20,10,10,7,8,3,,0.00,0,,92
2012-9-24,73,57,41,47,40,34,80,53,31,30.20,30.00,29.84,10,10,10,12,3,,0.00,0,,156
2012-9-25,84,66,47,50,43,36,87,53,18,29.92,29.85,29.82,10,10,7,9,3,,0.00,0,,355
2012-9-26,78,62,46,42,32,19,71,40,12,30.15,30.05,29.89,10,10,5,14,8,18,0.00,0,,15
2012-9-27,77,56,36,33,28,22,78,41,13,30.23,30.17,30.12,10,10,2,9,5,,0.00,0,,10
2012-9-28,76,56,37,43,32,23,77,48,14,30.21,30.16,30.11,10,10,7,8,3,,0.00,0,,41
2012-9-29,79,57,36,45,37,30,83,52,17,30.19,30.12,30.05,10,10,7,8,1,,0.00,0,,124
2012-9-30,81,62,43,44,39,35,79,50,19,30.06,29.98,29.92,10,10,7,7,1,,0.00,0,,216